TimeSAST,TemperatureF,Dew PointF,Humidity,Sea Level PressureIn,VisibilityMPH,Wind Direction,Wind SpeedMPH,Gust SpeedMPH,PrecipitationIn,Events,Conditions,WindDirDegrees,DateUTC
12:00 AM,75.2,39.2,27,29.89,-9999.0,SSW,11.5,-,N/A,,Unknown,210,2013-01-02 22:00:00
1:00 AM,75.2,35.6,24,29.89,-9999.0,SSW,8.1,-,N/A,,Clear,210,2013-01-02 23:00:00
2:00 AM,73,34,14,,25,SSW,5.8,,,,Scattered Clouds,210,2013-01-03 00:00:00
2:00 AM,71.6,33.8,25,29.89,-9999.0,SSW,4.6,-,N/A,,Clear,210,2013-01-03 00:00:00
3:00 AM,68.0,35.6,30,29.89,-9999.0,NNE,4.6,-,N/A,,Clear,30,2013-01-03 01:00:00
4:00 AM,68.0,33.8,28,29.89,-9999.0,WSW,6.9,-,N/A,,Clear,250,2013-01-03 02:00:00
5:00 AM,67,33,18,,25,WSW,8.1,,,,Scattered Clouds,240,2013-01-03 03:00:00
5:00 AM,66.2,32.0,28,29.89,-9999.0,WSW,8.1,-,N/A,,Clear,240,2013-01-03 03:00:00
6:00 AM,64.4,26.6,24,29.92,-9999.0,SW,9.2,-,N/A,,Clear,230,2013-01-03 04:00:00
7:00 AM,66.2,30.2,26,29.95,-9999.0,SSW,12.7,-,N/A,,Clear,210,2013-01-03 05:00:00
8:00 AM,71,30,12,,25,SSW,15.0,,,,Scattered Clouds,210,2013-01-03 06:00:00
9:00 AM,69.8,32.0,25,29.98,-9999.0,SSW,13.8,-,N/A,,Clear,210,2013-01-03 07:00:00
10:00 AM,75.2,32.0,21,30.01,-9999.0,SW,12.7,-,N/A,,Clear,220,2013-01-03 08:00:00
11:00 AM,77,32,11,,25,SW,12.7,,,,,220,2013-01-03 09:00:00
11:00 AM,75.2,32.0,21,29.98,-9999.0,SW,11.5,-,N/A,,Clear,220,2013-01-03 09:00:00
11:46 AM,80.6,30.2,16,29.98,-9999.0,SSW,11.5,-,N/A,,Clear,200,2013-01-03 09:46:00
12:00 PM,80.6,30.2,16,29.98,-9999.0,SSW,11.5,-,N/A,,Clear,200,2013-01-03 10:00:00
1:00 PM,84.2,30.2,14,29.95,-9999.0,SSW,10.4,-,N/A,,Clear,210,2013-01-03 11:00:00
1:35 PM,87.8,23.0,9,29.92,-9999.0,SW,11.5,-,N/A,,Clear,220,2013-01-03 11:35:00
2:00 PM,87,22,4,,25,SW,11.5,,,,,230,2013-01-03 12:00:00
2:00 PM,86.0,23.0,10,29.92,-9999.0,SW,11.5,-,N/A,,Clear,230,2013-01-03 12:00:00
3:00 PM,89.6,24.8,10,29.92,-9999.0,SW,16.1,-,N/A,,Clear,220,2013-01-03 13:00:00
4:00 PM,87.8,26.6,11,29.89,-9999.0,SW,15.0,-,N/A,,Clear,220,2013-01-03 14:00:00
5:00 PM,89,28,5,,25,SW,16.1,,,,,220,2013-01-03 15:00:00
5:00 PM,87.8,28.4,12,29.86,-9999.0,SW,15.0,-,N/A,,Clear,220,2013-01-03 15:00:00
6:00 PM,87.8,32.0,14,29.89,-9999.0,SSW,16.1,-,N/A,,Clear,210,2013-01-03 16:00:00
7:00 PM,84.2,32.0,15,29.89,-9999.0,SSW,16.1,-,N/A,,Clear,200,2013-01-03 17:00:00
8:00 PM,80,38,13,,25,SSW,15.0,,,,,200,2013-01-03 18:00:00
8:00 PM,78.8,37.4,23,29.92,-9999.0,SSW,13.8,-,N/A,,Clear,200,2013-01-03 18:00:00
9:00 PM,77.0,39.2,26,29.95,-9999.0,South,11.5,-,N/A,,Unknown,190,2013-01-03 19:00:00
10:00 PM,73.4,41.0,31,29.95,-9999.0,South,13.8,-,N/A,,Unknown,180,2013-01-03 20:00:00
11:00 PM,72,46,29,,,South,16.1,,,,,180,2013-01-03 21:00:00
11:00 PM,71.6,44.6,38,30.01,-9999.0,South,15.0,-,N/A,,Unknown,180,2013-01-03 21:00:00